LFMNLIMZ

Guest
Details From LFMN - Nice/Cote d'Azur
To LIMZ - LEVALDIGI
Flight Number -
Tags generated
Created
Modified
Stats Distance 56 nm / 104 km
Max Altitude 2,400 ft / 732 m
Waypoints 3
Social Downloads 1
Likes 0
Share VATSIM

Download

Looking for another format? Having issues loading an existing format? Contact us
Advertisement - Login to hide

Notes

Basic altitude profile: - Ascent Rate: 2500ft/min - Ascent Speed: 250kts - Cruise Altitude: 35000ft - Cruise Speed: 420kts - Descent Rate: 1500ft/min - Descent Speed: 250kts

Route

LFMN NIZ LIMZ

ID Type Via Altitude Latitude Longitude Leg Dist Tot Dist Heading (true) Name
O LFMN APT - 0 ft / 0 m 43.65798˚ 7.21536˚ - 0 nm - Nice/Cote d'Azur
NIZ VOR - 2,400 ft / 732 m 43.77064˚ 7.25439˚ 6 nm 6 nm 14° / 14° NICE COTE D AZUR VOR-DME
O LIMZ APT - 0 ft / 0 m 44.54760˚ 7.62332˚ 49 nm 56 nm 19° / 19° LEVALDIGI

Altitude Profile

Advertisement - Login to hide

LFMN

Details ICAO LFMN (NCE)
Name Nice/Cote d'Azur
Region France
Timezone Unknown (UTC+0.0)
Stats Elevation 12 ft / 4 m (AMSL)
Location 43.657981° 7.215362°
Runways 2
Magnetic Variation 2.015° E

METAR

LFMN 111030Z 18026KT 3000 RA SCT009 BKN028 BKN043 15/14 Q0993 NOSIG

Decode

TAF

TAF AMD LFMN 110919Z 1109/1215 20020KT 5000 RA FEW005 BKN008 TEMPO 1109/1121 2000 SHRA FEW015TCU TEMPO 1109/1118 22025G40KT BECMG 1118/1120 24015KT BECMG 1120/1122 9999 NSW SCT020 BECMG 1200/1201 BKN200 BECMG 1213/1215 SCT250

Decode

Departure Runways

ID Width Length Bearing (true) Bearing (mag) Surface Threshold Offset Overrun Length
04L 148 ft / 45 m 8,427 ft / 2,569 m 44.85° 42.84° Asphalt 0 ft / 0 m 131 ft / 40 m
04R 148 ft / 45 m 9,720 ft / 2,963 m 44.60° 42.59° Asphalt 0 ft / 0 m 427 ft / 130 m
22L 148 ft / 45 m 9,720 ft / 2,963 m 224.62° 222.61° Asphalt 0 ft / 0 m 525 ft / 160 m
22R 148 ft / 45 m 8,427 ft / 2,569 m 224.87° 222.86° Asphalt 0 ft / 0 m 492 ft / 150 m

LIMZ

Details ICAO LIMZ (CUF)
Name LEVALDIGI
Region Italy
Timezone Europe/Rome (UTC+1.0)
Stats Elevation 1,267 ft / 386 m (AMSL)
Location 44.547603° 7.623322°
Runways 1
Magnetic Variation 2.112° E

METAR

LIMZ 111050Z 21003KT 0900 SN OVC035 M02/M02 Q0998 R21/290195

Decode

TAF

TAF LIMZ 110500Z 1106/1206 VRB05KT 9999 BKN060 BECMG 1108/1110 2000 SN BKN010 BKN040 BECMG 1119/1121 5000 BR TEMPO 1200/1206 0500 FZFG BKN003

Decode

Destination Runways

ID Width Length Bearing (true) Bearing (mag) Surface Threshold Offset Overrun Length
03 148 ft / 45 m 6,903 ft / 2,104 m 32.49° 30.38° Asphalt 0 ft / 0 m 696 ft / 212 m
21 148 ft / 45 m 6,903 ft / 2,104 m 212.50° 210.39° Asphalt 0 ft / 0 m 581 ft / 177 m

Approach Navaids

Runway Type Ident Frequency Range Bearing (true) Bearing (mag) Slope Elevation
21 Localiser LEV 110.95 MHz 18 nm / 33 km 212.50° 210.38° - 1,267 ft / 386 m (AMSL)
21 Glidescope LEV 110.95 MHz 10 nm / 19 km 212.50° 210.38° 3.00° 1,267 ft / 386 m (AMSL)

Popular Alternatives